Time;durP1;ratioP1;P1;durP2;ratioP2;P2;SDS_P1;SDS_P2;PMS_P1;PMS_P2;Temp;Humidity;BMP_temperature;BMP_pressure;BME280_temperature;BME280_humidity;BME280_pressure;Samples;Min_cycle;Max_cycle;Signal;HPM_P1;HPM_P2
2021/05/30 00:00:41;;;;;;;7.68;6.97;;;8.20;70.70;;;;;;5191085;28;20521;-72
2021/05/30 00:03:14;;;;;;;7.00;6.40;;;8.10;70.90;;;;;;5187819;28;20038;-72
2021/05/30 00:05:46;;;;;;;7.57;6.88;;;8.10;71.10;;;;;;5191967;28;20041;-73
2021/05/30 00:08:18;;;;;;;7.60;6.90;;;8.00;71.20;;;;;;5173279;28;20041;-72
2021/05/30 00:10:50;;;;;;;7.85;7.15;;;8.00;71.40;;;;;;5192199;28;20060;-71
2021/05/30 00:13:23;;;;;;;8.27;7.47;;;7.90;71.60;;;;;;5188872;28;20737;-70
2021/05/30 00:15:55;;;;;;;7.50;6.90;;;7.90;72.20;;;;;;5188915;28;20482;-70
2021/05/30 00:18:27;;;;;;;7.63;6.80;;;7.80;72.00;;;;;;5191360;28;20501;-70
2021/05/30 00:20:59;;;;;;;7.07;6.40;;;7.80;72.10;;;;;;5191381;28;20058;-71
2021/05/30 00:23:30;;;;;;;7.90;7.20;;;7.70;72.40;;;;;;5178877;28;20077;-70
2021/05/30 00:26:04;;;;;;;7.32;6.63;;;7.80;71.90;;;;;;5190916;28;20077;-70
2021/05/30 00:28:36;;;;;;;7.55;6.85;;;7.90;71.90;;;;;;5189387;28;20070;-69
2021/05/30 00:31:08;;;;;;;7.20;6.60;;;7.90;71.20;;;;;;5187659;28;20073;-70
2021/05/30 00:33:40;;;;;;;6.85;6.25;;;7.90;71.70;;;;;;5191442;28;20038;-70
2021/05/30 00:36:13;;;;;;;8.38;7.25;;;7.90;70.70;;;;;;5189955;28;20454;-71
2021/05/30 00:38:45;;;;;;;7.50;6.90;;;7.90;70.80;;;;;;5190870;28;20052;-70
2021/05/30 00:41:17;;;;;;;7.68;7.07;;;8.00;71.10;;;;;;5188222;28;20517;-70
2021/05/30 00:43:51;;;;;;;8.13;7.43;;;7.90;71.20;;;;;;5190441;28;20041;-71
2021/05/30 00:46:24;;;;;;;7.90;7.20;;;7.90;71.40;;;;;;5187114;28;20045;-70
2021/05/30 00:48:56;;;;;;;7.50;6.80;;;7.90;71.60;;;;;;5191963;28;20069;-70
2021/05/30 00:51:32;;;;;;;7.63;7.00;;;7.80;71.80;;;;;;5187122;28;20125;-71
2021/05/30 00:54:04;;;;;;;7.93;7.22;;;7.70;72.50;;;;;;5189762;28;20046;-71
2021/05/30 00:56:36;;;;;;;9.32;7.53;;;7.60;72.50;;;;;;5189917;28;20157;-71
2021/05/30 00:59:13;;;;;;;7.97;7.18;;;7.50;72.90;;;;;;5188417;28;20509;-70
2021/05/30 01:01:47;;;;;;;8.05;7.25;;;7.50;73.60;;;;;;5187944;28;20054;-71
2021/05/30 01:04:19;;;;;;;8.55;7.85;;;7.40;74.00;;;;;;5187867;28;20505;-70
2021/05/30 01:06:56;;;;;;;8.35;7.65;;;7.40;73.60;;;;;;5172504;28;20091;-71
2021/05/30 01:09:28;;;;;;;8.32;7.53;;;7.40;73.50;;;;;;5189966;28;20045;-72
2021/05/30 01:12:03;;;;;;;7.95;7.15;;;7.40;73.20;;;;;;5170878;28;20121;-70
2021/05/30 01:14:36;;;;;;;8.35;7.65;;;7.40;72.90;;;;;;5191271;28;20038;-71
2021/05/30 01:17:09;;;;;;;8.13;7.32;;;7.50;73.50;;;;;;5173845;28;20531;-71
2021/05/30 01:19:43;;;;;;;7.93;7.22;;;7.50;73.70;;;;;;5190798;28;20763;-71
2021/05/30 01:22:15;;;;;;;8.10;7.30;;;7.50;72.70;;;;;;5187943;28;20072;-73
2021/05/30 01:24:47;;;;;;;8.10;7.30;;;7.40;72.90;;;;;;5190777;28;20471;-74
2021/05/30 01:27:19;;;;;;;8.07;7.38;;;7.40;73.10;;;;;;5177684;28;20049;-72
2021/05/30 01:29:51;;;;;;;7.45;6.60;;;7.40;72.10;;;;;;5189115;28;20122;-72
2021/05/30 01:32:23;;;;;;;8.55;7.25;;;7.40;72.40;;;;;;5189769;28;20174;-71
2021/05/30 01:34:55;;;;;;;8.10;7.40;;;7.40;72.50;;;;;;5187687;28;20382;-72
2021/05/30 01:37:27;;;;;;;7.90;7.10;;;7.40;72.40;;;;;;5191671;28;20080;-73
2021/05/30 01:39:59;;;;;;;8.05;7.13;;;7.30;71.80;;;;;;5191219;28;20045;-72
2021/05/30 01:42:31;;;;;;;8.40;7.50;;;7.40;71.00;;;;;;5170838;28;20042;-74
2021/05/30 01:45:04;;;;;;;7.50;6.80;;;7.40;71.70;;;;;;5190990;28;20113;-72
2021/05/30 01:47:38;;;;;;;7.65;6.95;;;7.40;71.70;;;;;;5188108;28;20059;-74
2021/05/30 01:50:16;;;;;;;8.00;7.22;;;7.40;71.60;;;;;;5174248;28;20137;-72
2021/05/30 01:52:49;;;;;;;8.77;7.22;;;7.40;71.80;;;;;;5173998;28;20046;-73
2021/05/30 01:55:29;;;;;;;7.72;6.90;;;7.40;71.50;;;;;;5188682;28;20037;-72
2021/05/30 01:58:01;;;;;;;7.32;6.63;;;7.40;71.20;;;;;;5174810;28;21116;-73
2021/05/30 02:00:36;;;;;;;7.78;6.97;;;7.40;71.10;;;;;;5185230;28;20041;-73
2021/05/30 02:03:09;;;;;;;7.50;6.80;;;7.40;71.20;;;;;;5174664;28;20054;-71
2021/05/30 02:05:45;;;;;;;7.60;6.90;;;7.40;71.60;;;;;;5187113;28;20045;-73
2021/05/30 02:08:18;;;;;;;8.20;7.50;;;7.40;71.80;;;;;;5189079;28;20068;-70
2021/05/30 02:10:49;;;;;;;7.82;6.93;;;7.40;71.80;;;;;;5188205;28;20038;-71
2021/05/30 02:13:25;;;;;;;8.10;7.40;;;7.30;72.10;;;;;;5188640;28;20041;-70
2021/05/30 02:15:57;;;;;;;7.93;7.13;;;7.30;72.00;;;;;;5187545;28;20492;-70
2021/05/30 02:18:29;;;;;;;8.57;7.68;;;7.30;72.40;;;;;;5187213;28;20041;-70
2021/05/30 02:21:01;;;;;;;7.65;6.93;;;7.30;71.90;;;;;;5173868;28;20053;-70
2021/05/30 02:23:33;;;;;;;8.23;7.40;;;7.20;72.30;;;;;;5186404;28;20052;-72
2021/05/30 02:26:05;;;;;;;7.70;7.00;;;7.10;73.40;;;;;;5173034;28;20132;-70
2021/05/30 02:28:37;;;;;;;7.20;6.60;;;7.10;72.30;;;;;;5190366;28;20045;-69
2021/05/30 02:31:09;;;;;;;7.80;7.10;;;7.10;73.00;;;;;;5184609;28;20061;-70
2021/05/30 02:33:41;;;;;;;7.80;7.00;;;7.10;71.80;;;;;;5186198;28;20053;-70
2021/05/30 02:36:13;;;;;;;7.70;7.00;;;7.10;72.50;;;;;;5188439;28;20119;-72
2021/05/30 02:38:45;;;;;;;8.65;7.70;;;7.10;72.20;;;;;;5187469;28;20046;-70
2021/05/30 02:41:17;;;;;;;8.25;7.20;;;7.10;72.40;;;;;;5186460;28;20041;-71
2021/05/30 02:43:49;;;;;;;8.05;7.25;;;7.10;73.00;;;;;;5187869;28;20065;-72
2021/05/30 02:46:21;;;;;;;7.88;7.18;;;7.10;72.20;;;;;;5188385;28;20049;-71
2021/05/30 02:48:53;;;;;;;7.75;7.05;;;7.00;72.90;;;;;;5186710;28;20041;-71
2021/05/30 02:51:26;;;;;;;7.93;7.22;;;6.90;73.80;;;;;;5187384;28;20045;-71
2021/05/30 02:53:58;;;;;;;7.93;7.22;;;6.90;73.40;;;;;;5187788;28;20095;-71
2021/05/30 02:56:30;;;;;;;7.70;7.00;;;6.90;73.60;;;;;;5186966;28;20053;-73
2021/05/30 02:59:02;;;;;;;7.72;7.03;;;6.90;73.60;;;;;;5189566;28;20049;-73
2021/05/30 03:01:34;;;;;;;7.63;6.93;;;6.80;72.60;;;;;;5185719;28;20045;-73
2021/05/30 03:04:06;;;;;;;8.40;7.00;;;6.80;73.40;;;;;;5186351;28;20435;-73
2021/05/30 03:06:38;;;;;;;7.57;6.88;;;6.80;72.60;;;;;;5189045;28;20048;-72
2021/05/30 03:09:10;;;;;;;7.20;6.45;;;6.80;73.10;;;;;;5172805;28;20117;-72
2021/05/30 03:11:42;;;;;;;7.07;6.47;;;6.80;73.30;;;;;;5187633;28;20072;-72
2021/05/30 03:14:14;;;;;;;7.95;6.65;;;6.70;72.60;;;;;;5172346;28;20129;-71
2021/05/30 03:16:46;;;;;;;7.25;6.53;;;6.70;72.40;;;;;;5186590;28;20111;-71
2021/05/30 03:19:21;;;;;;;7.93;7.22;;;6.70;72.40;;;;;;5189052;28;20077;-71
2021/05/30 03:21:52;;;;;;;7.05;6.35;;;6.70;73.00;;;;;;5189421;28;20091;-71
2021/05/30 03:24:24;;;;;;;7.43;6.72;;;6.70;73.00;;;;;;5190753;28;20041;-71
2021/05/30 03:26:56;;;;;;;6.90;6.20;;;6.70;73.20;;;;;;5190359;28;20096;-71
2021/05/30 03:29:28;;;;;;;6.93;6.32;;;6.70;72.50;;;;;;5193077;28;20464;-71
2021/05/30 03:32:00;;;;;;;7.38;6.68;;;6.70;72.90;;;;;;5191435;28;20748;-71
2021/05/30 03:34:33;;;;;;;7.05;6.45;;;6.70;72.00;;;;;;5192911;28;20045;-71
2021/05/30 03:37:05;;;;;;;7.53;6.45;;;6.70;71.80;;;;;;5187762;28;20653;-71
2021/05/30 03:39:40;;;;;;;6.50;5.90;;;6.70;72.40;;;;;;5176433;28;20041;-72
2021/05/30 03:42:32;;;;;;;7.43;6.72;;;6.60;73.00;;;;;;5150677;28;20563;-70
2021/05/30 03:45:05;;;;;;;7.07;6.38;;;6.60;71.80;;;;;;5193066;28;20049;-71
2021/05/30 03:47:37;;;;;;;7.05;6.35;;;6.60;72.50;;;;;;5158901;28;20052;-70
2021/05/30 03:50:09;;;;;;;7.00;5.88;;;6.60;74.00;;;;;;5189005;28;20049;-71
2021/05/30 03:52:41;;;;;;;6.85;6.15;;;6.60;74.70;;;;;;5191882;28;20065;-71
2021/05/30 03:55:14;;;;;;;6.93;6.32;;;6.50;75.50;;;;;;5191618;28;20127;-72
2021/05/30 03:57:47;;;;;;;6.53;5.93;;;6.60;75.20;;;;;;5191543;28;20041;-71
2021/05/30 04:00:19;;;;;;;7.10;6.50;;;6.50;74.90;;;;;;5188422;28;20057;-70
2021/05/30 04:02:51;;;;;;;7.30;6.60;;;6.50;74.80;;;;;;5188859;28;20038;-71
2021/05/30 04:05:23;;;;;;;7.05;6.35;;;6.50;74.60;;;;;;5189686;28;20045;-71
2021/05/30 04:07:55;;;;;;;6.93;6.32;;;6.50;74.60;;;;;;5189655;28;20739;-71
2021/05/30 04:10:28;;;;;;;6.97;6.20;;;6.50;74.70;;;;;;5191202;28;20068;-71
2021/05/30 04:13:00;;;;;;;6.97;6.30;;;6.50;74.40;;;;;;5189007;28;20404;-71
2021/05/30 04:15:32;;;;;;;7.35;6.25;;;6.50;74.50;;;;;;5188398;28;20058;-71
2021/05/30 04:18:04;;;;;;;6.55;5.90;;;6.40;75.10;;;;;;5192071;28;20074;-71
2021/05/30 04:20:37;;;;;;;6.85;6.15;;;6.40;75.10;;;;;;5190039;28;20465;-71
2021/05/30 04:23:09;;;;;;;6.57;5.97;;;6.40;75.10;;;;;;5190916;28;20468;-71
2021/05/30 04:25:41;;;;;;;9.05;6.63;;;6.40;75.40;;;;;;5190344;28;20061;-71
2021/05/30 04:28:13;;;;;;;6.90;6.30;;;6.30;75.70;;;;;;5191610;28;20120;-71
2021/05/30 04:30:45;;;;;;;6.82;6.22;;;6.40;75.90;;;;;;5189705;28;20044;-71
2021/05/30 04:33:17;;;;;;;6.72;6.13;;;6.30;76.20;;;;;;5191081;28;20037;-73
2021/05/30 04:35:49;;;;;;;9.18;6.50;;;6.50;76.60;;;;;;5187100;28;20064;-71
2021/05/30 04:38:21;;;;;;;7.30;6.60;;;6.70;76.90;;;;;;5170851;28;20107;-72
2021/05/30 04:40:53;;;;;;;7.55;6.85;;;6.80;76.60;;;;;;5172204;28;20046;-71
2021/05/30 04:43:25;;;;;;;7.50;6.80;;;7.00;76.30;;;;;;5170763;28;20041;-72
2021/05/30 04:45:56;;;;;;;7.90;7.10;;;7.10;75.90;;;;;;5191176;28;20069;-74
2021/05/30 04:48:28;;;;;;;8.35;7.20;;;7.30;75.40;;;;;;5189768;28;20053;-72
2021/05/30 04:51:06;;;;;;;7.95;7.10;;;7.50;75.40;;;;;;5175523;28;20137;-71
2021/05/30 04:53:41;;;;;;;7.88;7.07;;;7.60;75.80;;;;;;5176425;28;20049;-71
2021/05/30 04:56:19;;;;;;;8.50;7.63;;;7.70;75.30;;;;;;5173763;28;20100;-71
2021/05/30 04:58:52;;;;;;;8.57;7.57;;;7.80;74.60;;;;;;5174718;28;20504;-71
2021/05/30 05:01:24;;;;;;;9.52;7.90;;;8.00;74.30;;;;;;5170862;28;20042;-70
2021/05/30 05:03:56;;;;;;;8.82;8.02;;;8.00;74.20;;;;;;5174807;28;20045;-71
2021/05/30 05:06:28;;;;;;;8.55;7.75;;;8.20;74.00;;;;;;5189619;28;20044;-71
2021/05/30 05:09:00;;;;;;;8.52;7.72;;;8.30;73.40;;;;;;5173254;28;20049;-72
2021/05/30 05:11:32;;;;;;;9.98;7.47;;;8.40;73.30;;;;;;5187600;28;20480;-72
2021/05/30 05:14:04;;;;;;;9.13;7.80;;;8.50;72.80;;;;;;5178458;28;20052;-71
2021/05/30 05:16:37;;;;;;;8.70;7.90;;;8.60;72.80;;;;;;5193031;28;20072;-72
2021/05/30 05:19:09;;;;;;;8.77;7.95;;;8.80;72.70;;;;;;5192048;28;20046;-71
2021/05/30 05:21:41;;;;;;;8.38;7.60;;;8.90;72.50;;;;;;5191166;28;20041;-71
2021/05/30 05:24:13;;;;;;;8.82;8.05;;;9.00;71.70;;;;;;5170331;28;20049;-71
2021/05/30 05:26:45;;;;;;;10.88;8.80;;;9.10;72.10;;;;;;5187463;28;20037;-71
2021/05/30 05:29:16;;;;;;;8.55;7.75;;;9.20;71.20;;;;;;5173306;28;20440;-71
2021/05/30 05:31:48;;;;;;;8.63;7.82;;;9.30;71.20;;;;;;5187675;28;20104;-71
2021/05/30 05:34:20;;;;;;;9.07;8.25;;;9.40;71.20;;;;;;5191886;28;20044;-72
2021/05/30 05:36:52;;;;;;;9.63;8.50;;;9.60;70.90;;;;;;5192995;28;20045;-71
2021/05/30 05:39:24;;;;;;;9.23;8.32;;;9.70;70.30;;;;;;5173975;28;20116;-71
2021/05/30 05:41:56;;;;;;;11.55;9.02;;;9.80;70.20;;;;;;5187701;28;20681;-71
2021/05/30 05:44:28;;;;;;;9.02;8.13;;;9.90;69.30;;;;;;5153739;28;20046;-72
2021/05/30 05:47:00;;;;;;;8.95;7.95;;;10.00;69.50;;;;;;5190981;28;20538;-71
2021/05/30 05:49:34;;;;;;;9.93;8.93;;;10.10;69.40;;;;;;5191895;28;20421;-71
2021/05/30 05:52:06;;;;;;;10.35;9.45;;;10.20;70.00;;;;;;5187325;28;20052;-71
2021/05/30 05:54:53;;;;;;;9.55;8.65;;;10.30;68.60;;;;;;5189418;28;20037;-73
2021/05/30 05:57:25;;;;;;;9.20;8.40;;;10.40;68.20;;;;;;5185805;28;20038;-71
2021/05/30 05:59:57;;;;;;;9.07;8.27;;;10.50;68.60;;;;;;5189627;28;20045;-71
2021/05/30 06:02:29;;;;;;;9.90;8.90;;;10.70;67.60;;;;;;5143411;28;20468;-72
2021/05/30 06:05:03;;;;;;;8.85;8.05;;;10.80;67.90;;;;;;5188145;28;20476;-72
2021/05/30 06:07:38;;;;;;;9.38;8.30;;;10.90;66.40;;;;;;5185842;28;20072;-72
2021/05/30 06:10:12;;;;;;;10.02;9.02;;;11.00;66.80;;;;;;5185013;28;20041;-72
2021/05/30 06:12:44;;;;;;;9.07;8.27;;;11.20;67.10;;;;;;5186485;28;20072;-70
2021/05/30 06:15:16;;;;;;;9.70;8.55;;;11.30;67.70;;;;;;5176293;28;20114;-71
2021/05/30 06:17:55;;;;;;;10.25;9.35;;;11.50;67.40;;;;;;5185788;28;20037;-70
2021/05/30 06:20:27;;;;;;;9.75;8.82;;;11.60;66.80;;;;;;5174210;28;20054;-72
2021/05/30 06:22:59;;;;;;;10.25;9.25;;;11.70;66.30;;;;;;5183169;28;20078;-71
2021/05/30 06:25:34;;;;;;;9.60;8.70;;;11.80;65.50;;;;;;5182343;28;20057;-71
2021/05/30 06:28:06;;;;;;;9.25;8.35;;;11.90;64.70;;;;;;5154779;28;20038;-70
2021/05/30 06:30:40;;;;;;;9.18;8.38;;;12.00;64.30;;;;;;5183314;28;20065;-71
2021/05/30 06:33:12;;;;;;;12.38;9.95;;;12.10;64.70;;;;;;5185353;28;20073;-72
2021/05/30 06:35:44;;;;;;;10.32;9.32;;;12.20;65.90;;;;;;5183479;28;20073;-72
2021/05/30 06:38:16;;;;;;;9.70;8.90;;;12.30;64.20;;;;;;5178635;28;20095;-72
2021/05/30 06:40:48;;;;;;;12.00;9.70;;;12.40;65.20;;;;;;5167419;28;20041;-71
2021/05/30 06:43:19;;;;;;;10.65;9.73;;;12.50;64.90;;;;;;5183630;28;20449;-72
2021/05/30 06:45:51;;;;;;;9.75;8.95;;;12.60;63.10;;;;;;5182317;28;20045;-71
2021/05/30 06:48:24;;;;;;;9.80;9.00;;;12.60;61.20;;;;;;5185431;28;20132;-71
2021/05/30 06:53:48;;;;;;;10.73;9.82;;;12.50;62.30;;;;;;5184550;28;20045;-71
2021/05/30 06:56:21;;;;;;;12.38;11.07;;;12.70;63.30;;;;;;5186573;28;20944;-71
2021/05/30 06:58:54;;;;;;;13.38;11.90;;;12.80;61.50;;;;;;5191622;28;20049;-71
2021/05/30 07:01:26;;;;;;;12.02;10.88;;;12.90;61.90;;;;;;5186515;28;20120;-69
2021/05/30 07:03:58;;;;;;;40.40;22.30;;;13.10;62.10;;;;;;5186339;28;20034;-70
2021/05/30 07:06:30;;;;;;;12.07;10.88;;;13.30;62.90;;;;;;5188177;28;20038;-70
2021/05/30 07:09:06;;;;;;;15.40;12.95;;;13.50;63.70;;;;;;5186816;28;20528;-69
2021/05/30 07:11:37;;;;;;;12.38;11.13;;;13.60;61.90;;;;;;5188517;28;20091;-69
2021/05/30 07:14:09;;;;;;;12.13;11.02;;;13.50;60.80;;;;;;5188060;28;20045;-70
2021/05/30 07:16:42;;;;;;;11.07;9.98;;;13.60;62.70;;;;;;5183531;28;20091;-70
2021/05/30 07:19:14;;;;;;;11.43;10.52;;;13.70;61.60;;;;;;5186496;28;20621;-71
2021/05/30 07:21:46;;;;;;;16.80;13.73;;;13.80;63.00;;;;;;5173948;28;20065;-71
2021/05/30 07:24:18;;;;;;;12.77;11.52;;;13.90;61.00;;;;;;5183977;28;20046;-72
2021/05/30 07:26:50;;;;;;;12.38;11.18;;;13.90;59.70;;;;;;5173225;28;20050;-70
2021/05/30 07:29:22;;;;;;;13.63;12.23;;;13.90;60.50;;;;;;5171369;28;20056;-70
2021/05/30 07:31:54;;;;;;;11.75;10.68;;;14.10;59.90;;;;;;5168012;28;20604;-69
2021/05/30 07:34:26;;;;;;;11.10;10.20;;;14.20;57.70;;;;;;5187035;28;20065;-71
2021/05/30 07:36:58;;;;;;;10.82;9.93;;;14.40;60.90;;;;;;5185617;28;20064;-70
2021/05/30 07:39:29;;;;;;;11.18;10.20;;;14.50;54.50;;;;;;5185786;28;20894;-70
2021/05/30 07:42:02;;;;;;;10.38;9.57;;;14.60;54.60;;;;;;5185732;28;20046;-71
2021/05/30 07:44:33;;;;;;;11.77;10.80;;;14.70;53.10;;;;;;5173994;28;20042;-71
2021/05/30 07:47:09;;;;;;;11.50;10.60;;;14.90;57.60;;;;;;5169460;28;20066;-69
2021/05/30 07:49:41;;;;;;;11.13;10.07;;;15.00;56.10;;;;;;5183070;28;20033;-70
2021/05/30 07:52:13;;;;;;;11.10;10.10;;;15.10;57.30;;;;;;5180310;28;20049;-69
2021/05/30 07:54:45;;;;;;;11.25;10.35;;;15.30;54.20;;;;;;5182070;28;20045;-69
2021/05/30 07:57:17;;;;;;;10.60;9.80;;;15.40;55.00;;;;;;5181958;28;20168;-71
2021/05/30 07:59:49;;;;;;;10.35;9.55;;;15.30;57.90;;;;;;5185777;28;20037;-70
2021/05/30 08:02:21;;;;;;;11.82;10.45;;;15.30;54.30;;;;;;5182846;28;20729;-69
2021/05/30 08:04:55;;;;;;;10.85;9.98;;;15.20;52.10;;;;;;5184188;28;20064;-69
2021/05/30 08:07:27;;;;;;;10.63;9.65;;;15.00;51.00;;;;;;5187715;28;20065;-67
2021/05/30 08:09:59;;;;;;;10.82;10.00;;;15.10;51.30;;;;;;5190059;28;20095;-69
2021/05/30 08:12:32;;;;;;;11.32;10.27;;;15.30;53.80;;;;;;5189172;28;20053;-70
2021/05/30 08:15:06;;;;;;;10.70;9.90;;;15.30;51.30;;;;;;5190015;28;20041;-69
2021/05/30 08:17:38;;;;;;;10.85;9.85;;;15.40;49.80;;;;;;5187057;28;20511;-67
2021/05/30 08:20:13;;;;;;;10.68;9.88;;;15.60;49.90;;;;;;5186879;28;20099;-67
2021/05/30 08:22:46;;;;;;;10.77;9.88;;;15.60;50.00;;;;;;5186002;28;20187;-68
2021/05/30 08:25:19;;;;;;;10.00;9.20;;;15.70;51.20;;;;;;5173054;28;20034;-69
2021/05/30 08:27:51;;;;;;;10.65;9.85;;;15.80;49.80;;;;;;5189594;28;20091;-68
2021/05/30 08:30:24;;;;;;;11.43;10.52;;;15.80;48.70;;;;;;5180475;28;20177;-68
2021/05/30 08:32:59;;;;;;;10.82;9.93;;;15.90;47.90;;;;;;5174130;28;20053;-67
2021/05/30 08:35:31;;;;;;;10.93;9.93;;;16.10;49.40;;;;;;5188142;28;20566;-69
2021/05/30 08:38:03;;;;;;;10.82;10.02;;;16.20;46.00;;;;;;5190009;28;20092;-67
2021/05/30 08:40:34;;;;;;;11.57;10.57;;;16.10;48.50;;;;;;5188721;28;20138;-67
2021/05/30 08:43:06;;;;;;;10.43;9.63;;;15.80;47.30;;;;;;5188727;28;20046;-67
2021/05/30 08:45:38;;;;;;;10.95;10.15;;;15.60;48.70;;;;;;5185214;28;20525;-67
2021/05/30 08:48:11;;;;;;;11.23;10.23;;;15.60;48.30;;;;;;5192033;28;20099;-67
2021/05/30 08:50:43;;;;;;;10.85;9.98;;;15.70;49.10;;;;;;5187066;28;20126;-66
2021/05/30 08:53:15;;;;;;;10.82;9.80;;;15.60;47.20;;;;;;5186017;28;20046;-67
2021/05/30 08:55:46;;;;;;;11.38;10.38;;;15.50;47.40;;;;;;5186114;28;20042;-70
2021/05/30 08:58:18;;;;;;;11.00;9.95;;;15.50;45.40;;;;;;5188821;28;20076;-67
2021/05/30 09:01:07;;;;;;;11.27;10.27;;;15.70;44.90;;;;;;5186599;28;20046;-67
2021/05/30 09:04:03;;;;;;;10.75;9.75;;;15.90;46.60;;;;;;5187191;28;20040;-68
2021/05/30 09:06:40;;;;;;;11.27;10.27;;;15.80;45.60;;;;;;5187736;28;20073;-68
2021/05/30 09:09:13;;;;;;;10.57;9.70;;;15.90;44.40;;;;;;5190050;28;20045;-68
2021/05/30 09:11:53;;;;;;;11.30;10.27;;;15.80;44.30;;;;;;5188948;28;20042;-68
2021/05/30 09:14:32;;;;;;;11.07;10.07;;;15.70;47.50;;;;;;5189333;28;20045;-67
2021/05/30 09:17:10;;;;;;;10.63;9.73;;;15.90;47.60;;;;;;5190676;28;20132;-70
2021/05/30 09:19:55;;;;;;;10.63;9.73;;;15.80;47.40;;;;;;5185741;28;20041;-67
2021/05/30 09:22:39;;;;;;;11.00;10.00;;;15.70;48.90;;;;;;5178877;28;20620;-69
2021/05/30 09:25:14;;;;;;;11.48;10.40;;;15.70;48.70;;;;;;5188850;28;20100;-67
2021/05/30 09:27:46;;;;;;;11.40;10.23;;;15.80;49.90;;;;;;5169191;28;20599;-69
2021/05/30 09:30:32;;;;;;;11.27;10.35;;;15.90;46.50;;;;;;5189710;28;20108;-70
2021/05/30 09:33:07;;;;;;;11.30;10.40;;;16.10;45.60;;;;;;5170097;28;20138;-68
2021/05/30 09:35:39;;;;;;;11.35;10.35;;;16.30;46.60;;;;;;5187880;28;20052;-68
2021/05/30 09:38:17;;;;;;;11.55;10.52;;;16.40;45.70;;;;;;5189469;28;21826;-67
2021/05/30 09:40:50;;;;;;;11.27;10.32;;;16.50;47.40;;;;;;5188848;28;20127;-68
2021/05/30 09:43:25;;;;;;;11.27;10.32;;;16.70;48.20;;;;;;5186981;28;20069;-67
2021/05/30 09:46:17;;;;;;;11.48;10.48;;;16.80;44.90;;;;;;5188638;28;20046;-67
2021/05/30 09:48:49;;;;;;;11.13;10.23;;;16.90;45.80;;;;;;5177011;28;20736;-69
2021/05/30 09:51:39;;;;;;;11.05;10.15;;;16.90;44.10;;;;;;5186375;28;20049;-68
2021/05/30 09:54:17;;;;;;;11.23;10.32;;;17.00;45.20;;;;;;5171683;28;20056;-67
2021/05/30 09:56:54;;;;;;;11.57;10.57;;;17.10;46.30;;;;;;5186101;28;20041;-68
2021/05/30 09:59:37;;;;;;;11.57;10.68;;;17.20;44.40;;;;;;5186513;28;20136;-68
2021/05/30 10:02:17;;;;;;;11.70;10.80;;;17.20;41.20;;;;;;5185367;28;20054;-67
2021/05/30 10:04:51;;;;;;;12.38;11.20;;;17.30;46.10;;;;;;5185216;28;20593;-68
2021/05/30 10:07:24;;;;;;;12.20;11.13;;;17.40;45.30;;;;;;5184674;28;20037;-67
2021/05/30 10:09:56;;;;;;;11.77;10.85;;;17.40;44.10;;;;;;5169651;28;20412;-68
2021/05/30 10:12:29;;;;;;;11.73;10.82;;;17.40;44.40;;;;;;5186152;28;20045;-70
2021/05/30 10:15:01;;;;;;;12.00;11.00;;;17.40;44.30;;;;;;5185451;28;20069;-68
2021/05/30 10:17:35;;;;;;;11.95;10.85;;;17.50;42.20;;;;;;5186146;28;20127;-68
2021/05/30 10:20:14;;;;;;;13.68;11.60;;;17.50;41.00;;;;;;5189561;28;20099;-69
2021/05/30 10:22:55;;;;;;;12.05;11.15;;;17.50;40.20;;;;;;5190827;28;20509;-70
2021/05/30 10:25:32;;;;;;;11.70;10.80;;;17.50;41.30;;;;;;5187893;28;20523;-68
2021/05/30 10:28:21;;;;;;;12.30;11.35;;;17.50;40.80;;;;;;5188981;28;20069;-69
2021/05/30 10:31:36;;;;;;;11.77;10.88;;;17.60;41.20;;;;;;5186556;28;20069;-70
2021/05/30 10:34:13;;;;;;;12.70;11.70;;;17.70;39.40;;;;;;5178693;28;20551;-68
2021/05/30 10:37:08;;;;;;;12.30;11.30;;;17.60;40.90;;;;;;5185609;28;20049;-68
2021/05/30 10:39:40;;;;;;;11.85;10.85;;;17.70;39.00;;;;;;5183133;28;20049;-68
2021/05/30 10:42:17;;;;;;;12.00;11.10;;;17.70;39.70;;;;;;5171474;28;20717;-68
2021/05/30 10:44:49;;;;;;;12.45;11.45;;;17.80;39.60;;;;;;5188537;28;20091;-68
2021/05/30 10:47:41;;;;;;;12.93;11.82;;;18.00;39.60;;;;;;5187260;28;20045;-67
2021/05/30 10:50:16;;;;;;;12.45;11.48;;;18.00;39.80;;;;;;5189229;28;20041;-67
2021/05/30 10:52:56;;;;;;;12.80;11.70;;;18.10;38.50;;;;;;5174407;28;20041;-68
2021/05/30 10:55:32;;;;;;;12.43;11.43;;;18.10;39.70;;;;;;5189588;28;20046;-68
2021/05/30 10:58:17;;;;;;;12.57;11.57;;;17.80;38.90;;;;;;5190370;28;20053;-69
2021/05/30 11:00:51;;;;;;;12.55;11.52;;;17.50;37.90;;;;;;5185886;28;20045;-68
2021/05/30 11:03:23;;;;;;;12.23;11.32;;;17.60;39.10;;;;;;5186639;28;20037;-67
2021/05/30 11:05:57;;;;;;;12.38;11.40;;;17.50;38.10;;;;;;5186236;28;20034;-69
2021/05/30 11:08:29;;;;;;;12.52;11.52;;;17.30;38.50;;;;;;5185921;28;20747;-68
2021/05/30 11:11:22;;;;;;;12.93;11.82;;;17.30;38.90;;;;;;5165251;28;20061;-68
2021/05/30 11:14:19;;;;;;;12.80;11.80;;;17.50;39.70;;;;;;5186618;28;20045;-68
2021/05/30 11:16:51;;;;;;;12.52;11.63;;;17.50;38.40;;;;;;5187589;28;20045;-67
2021/05/30 11:19:23;;;;;;;12.65;11.55;;;17.60;38.10;;;;;;5191068;28;20100;-69
2021/05/30 11:21:55;;;;;;;14.43;13.15;;;17.70;35.80;;;;;;5187371;28;20076;-70
2021/05/30 11:24:32;;;;;;;13.10;12.10;;;17.80;38.90;;;;;;5184220;28;20041;-67
2021/05/30 11:27:05;;;;;;;12.35;11.35;;;18.00;37.40;;;;;;5183554;28;20045;-69
2021/05/30 11:29:37;;;;;;;13.20;12.20;;;18.10;35.80;;;;;;5185211;28;20046;-67
2021/05/30 11:32:09;;;;;;;13.00;12.00;;;18.30;38.20;;;;;;5180157;28;20088;-67
2021/05/30 11:34:42;;;;;;;13.30;12.20;;;18.40;38.90;;;;;;5188653;28;20528;-67
2021/05/30 11:37:14;;;;;;;12.88;11.80;;;18.50;35.70;;;;;;5169749;28;20107;-70
2021/05/30 11:39:47;;;;;;;12.95;11.85;;;18.60;35.50;;;;;;5188091;28;20069;-71
2021/05/30 11:42:24;;;;;;;13.35;12.32;;;18.70;34.90;;;;;;5187451;28;20049;-70
2021/05/30 11:44:56;;;;;;;12.70;11.60;;;18.80;35.80;;;;;;5189387;28;20932;-70
2021/05/30 11:47:28;;;;;;;12.40;11.45;;;18.70;35.50;;;;;;5187757;28;20095;-68
2021/05/30 11:50:00;;;;;;;12.80;11.80;;;18.60;35.20;;;;;;5196348;28;20056;-69
2021/05/30 11:52:34;;;;;;;12.93;12.00;;;18.50;33.40;;;;;;5180310;28;20103;-70
2021/05/30 11:55:15;;;;;;;13.00;12.05;;;18.40;34.80;;;;;;5177284;28;20846;-70
2021/05/30 11:57:47;;;;;;;12.90;11.93;;;18.60;35.60;;;;;;5173881;28;20192;-69
2021/05/30 12:00:24;;;;;;;12.80;11.77;;;18.60;36.00;;;;;;5196080;28;20104;-69
2021/05/30 12:02:55;;;;;;;12.52;11.52;;;18.40;35.30;;;;;;5187440;28;20112;-69
2021/05/30 12:05:27;;;;;;;12.43;11.52;;;18.30;35.70;;;;;;5192413;28;20472;-69
2021/05/30 12:08:10;;;;;;;12.10;11.20;;;18.40;34.40;;;;;;5191622;28;20077;-69
2021/05/30 12:10:52;;;;;;;12.77;11.77;;;18.60;33.80;;;;;;5190944;28;20045;-69
2021/05/30 12:13:36;;;;;;;13.52;12.43;;;18.80;35.00;;;;;;5188182;28;20567;-68
2021/05/30 12:16:15;;;;;;;12.88;11.70;;;18.80;35.30;;;;;;5188104;28;20377;-68
2021/05/30 12:18:56;;;;;;;12.63;11.52;;;18.90;36.30;;;;;;5172629;28;20115;-71
2021/05/30 12:21:37;;;;;;;12.55;11.63;;;18.90;34.70;;;;;;5190646;28;20046;-68
2021/05/30 12:24:12;;;;;;;13.60;12.50;;;19.00;35.80;;;;;;5193364;28;20049;-69
2021/05/30 12:26:46;;;;;;;12.70;11.70;;;19.10;34.10;;;;;;5188733;28;20070;-68
2021/05/30 12:29:20;;;;;;;12.60;11.70;;;19.20;33.40;;;;;;5193086;28;20068;-71
2021/05/30 12:31:53;;;;;;;12.68;11.77;;;19.30;32.90;;;;;;5190990;28;20466;-68
2021/05/30 12:34:36;;;;;;;12.70;11.60;;;19.40;34.60;;;;;;5174624;28;20049;-68
2021/05/30 12:37:08;;;;;;;13.05;12.05;;;19.40;33.70;;;;;;5190504;28;20076;-68
2021/05/30 12:39:40;;;;;;;13.60;12.50;;;19.50;34.90;;;;;;5190085;28;20065;-70
2021/05/30 12:42:16;;;;;;;13.02;12.02;;;19.60;34.20;;;;;;5188952;28;20292;-68
2021/05/30 12:44:53;;;;;;;12.80;11.80;;;19.70;33.70;;;;;;5189693;28;20042;-72
2021/05/30 12:47:32;;;;;;;12.82;11.73;;;19.50;32.60;;;;;;5190501;28;20070;-68
2021/05/30 12:50:06;;;;;;;12.82;11.82;;;19.60;31.70;;;;;;5192136;28;20509;-69
2021/05/30 12:52:53;;;;;;;13.00;12.00;;;19.60;32.80;;;;;;5191455;28;20092;-70
2021/05/30 12:55:38;;;;;;;13.63;12.48;;;19.70;34.70;;;;;;5187977;28;20041;-69
2021/05/30 12:58:20;;;;;;;12.98;11.93;;;19.90;31.90;;;;;;5174149;28;20100;-69
2021/05/30 13:00:51;;;;;;;13.55;12.45;;;19.80;33.40;;;;;;5193543;28;20125;-71
2021/05/30 13:03:25;;;;;;;13.60;12.50;;;19.90;32.50;;;;;;5191511;28;20481;-70
2021/05/30 13:05:57;;;;;;;13.52;12.50;;;20.00;32.20;;;;;;5192705;28;20069;-69
2021/05/30 13:08:29;;;;;;;13.65;12.52;;;19.90;34.30;;;;;;5191203;28;20103;-68
2021/05/30 13:11:06;;;;;;;13.77;12.77;;;20.20;33.80;;;;;;5190420;28;20042;-69
2021/05/30 13:13:42;;;;;;;13.63;12.52;;;20.30;32.10;;;;;;5189086;28;20209;-69
2021/05/30 13:16:29;;;;;;;13.75;12.65;;;20.40;33.30;;;;;;5188757;28;20073;-68
2021/05/30 13:19:01;;;;;;;13.63;12.52;;;20.60;33.10;;;;;;5190481;28;20049;-70
2021/05/30 13:21:33;;;;;;;13.60;12.60;;;20.50;32.70;;;;;;5170424;28;20398;-70